Kate Golding — WDH7802 — position and weather

sailwx.info

Track history (hours):
 
Tides and Currents Weather Stations Pressure Air Temp Water Temp Dewpoint Dewpoint Depression Visibility Wind Speed Wind Dir Waves Ship Positions

Kate Golding

Owner: GOLDING BARGE LINE, INC, VICKSBURG, MS. More information available from US FCC via Universal Licensing System and Coast Guard Vessel Documentation Center.

Last reported at 2017-Nov-18 01:05 UTC. Time now 2017-Nov-19 01:27 UTC.
Position N 29°34' W 090°31'.

Length 121 m; draft 2.4 m.

Type: . MMSI: 367651810.

Date/timePositionNaut miles runAvg speedWind from/ knotsBaromVisibWave heightAir tempDewpointWater temp
2017-Nov-18 01:05N 29°34' W 090°31'1 5.6
2017-Nov-18 00:58N 29°34' W 090°32'3 5.4
2017-Nov-18 00:30N 29°34' W 090°34'3 5.2
2017-Nov-18 00:00N 29°35' W 090°37'1 2.8
2017-Nov-17 23:31N 29°35' W 090°39'3 5.6
2017-Nov-17 23:01N 29°37' W 090°42'2 4.0
2017-Nov-17 22:30N 29°35' W 090°43'2 3.9
2017-Nov-17 22:01N 29°34' W 090°45'1 1.0
2017-Nov-17 21:29N 29°33' W 090°45'0 0.0
2017-Nov-17 20:58N 29°33' W 090°45'0 0.1
2017-Nov-17 20:28N 29°33' W 090°45'1 2.8
2017-Nov-17 20:00N 29°32' W 090°46'3 5.9
2017-Nov-17 19:30N 29°32' W 090°49'3 5.9
2017-Nov-17 18:58N 29°32' W 090°53'3 5.9
2017-Nov-17 18:28N 29°34' W 090°56'57 4.0
2017-Nov-17 04:11N 29°50' W 091°59'1 5.6
2017-Nov-17 04:00N 29°50' W 091°60'3 5.6
2017-Nov-17 03:30N 29°49' W 092°03'3 5.6
2017-Nov-17 03:00N 29°48' W 092°06'3 5.5
2017-Nov-17 02:30N 29°47' W 092°09'2 4.9
2017-Nov-17 02:00N 29°47' W 092°12'1 1.8
2017-Nov-17 01:30N 29°47' W 092°13'1 2.3
2017-Nov-17 00:58N 29°48' W 092°14'0 0.0
2017-Nov-17 00:28N 29°48' W 092°14'0 0.2
2017-Nov-16 23:58N 29°48' W 092°14'1 3.0
2017-Nov-16 23:30N 29°48' W 092°16'2 4.1
2017-Nov-16 23:00N 29°50' W 092°18'2 4.7
2017-Nov-16 22:30N 29°51' W 092°20'4 4.7
2017-Nov-16 21:37N 29°53' W 092°24'2 3.3
2017-Nov-16 21:09N 29°53' W 092°26'34 5.2
2017-Nov-16 14:40N 29°56' W 093°04'2 5.4
2017-Nov-16 14:13N 29°56' W 093°07'1 5.3
2017-Nov-16 13:57N 29°56' W 093°09'3 5.2
2017-Nov-16 13:27N 29°58' W 093°11'1 1.1
2017-Nov-16 12:45N 29°58' W 093°12'0 0.0
2017-Nov-16 11:45N 29°58' W 093°12'0 0.1
2017-Nov-16 11:30N 29°58' W 093°12'0 0.0
2017-Nov-16 11:00N 29°58' W 093°12'0 0.0
2017-Nov-16 10:30N 29°58' W 093°12'0 0.0
2017-Nov-16 10:00N 29°58' W 093°12'0 0.0
2017-Nov-16 09:30N 29°58' W 093°12'0 0.0
2017-Nov-16 08:57N 29°58' W 093°12'0 0.0
2017-Nov-16 08:30N 29°58' W 093°12'0 0.0
2017-Nov-16 08:00N 29°58' W 093°12'0 0.0
2017-Nov-16 07:27N 29°58' W 093°12'0 0.0
2017-Nov-16 07:00N 29°58' W 093°12'0 0.0
2017-Nov-16 06:30N 29°58' W 093°12'0 0.0
2017-Nov-16 06:00N 29°58' W 093°12'0 0.0
2017-Nov-16 05:30N 29°58' W 093°12'0 0.0
2017-Nov-16 05:00N 29°58' W 093°12'0 0.1
2017-Nov-16 04:30N 29°58' W 093°12'0 0.1
2017-Nov-16 03:57N 29°58' W 093°12'2 4.1
2017-Nov-16 03:30N 29°60' W 093°13'2 4.7
2017-Nov-16 03:01N 30°02' W 093°15'2 4.2
2017-Nov-16 02:30N 30°04' W 093°16'2 4.5
2017-Nov-16 02:01N 30°05' W 093°18'1 1.9
2017-Nov-16 01:30N 30°06' W 093°18'1 1.4
2017-Nov-16 00:59N 30°06' W 093°19'0 0.0
2017-Nov-16 00:29N 30°06' W 093°19'0 0.0
2017-Nov-15 23:59N 30°06' W 093°19'0 0.1
2017-Nov-15 23:29N 30°06' W 093°19'0 0.7
2017-Nov-15 23:00N 30°06' W 093°19'2 3.5
2017-Nov-15 22:30N 30°04' W 093°20'2 3.4
2017-Nov-15 22:00N 30°04' W 093°22'2 4.4
2017-Nov-15 21:30N 30°04' W 093°25'1 2.1
2017-Nov-15 21:00N 30°04' W 093°26'2 4.4
2017-Nov-15 20:30N 30°04' W 093°29'3 5.2
2017-Nov-15 20:00N 30°04' W 093°32'22 5.2
2017-Nov-15 15:49N 29°54' W 093°54'56 4.3
2017-Nov-15 02:44N 29°30' W 094°53'2 7.3
2017-Nov-15 02:30N 29°32' W 094°54'3 6.9
2017-Nov-15 02:00N 29°35' W 094°56'3 7.0
2017-Nov-15 01:30N 29°38' W 094°58'4 7.2
2017-Nov-15 01:00N 29°41' W 094°59'3 6.1
2017-Nov-15 00:30N 29°43' W 095°01'5 3.5
2017-Nov-14 23:13N 29°48' W 095°04'2 0.2
2017-Nov-14 12:16N 29°46' W 095°05'3 6.6
2017-Nov-14 11:44N 29°44' W 095°08'1 4.2
2017-Nov-14 11:23N 29°45' W 095°10'3 0.1
2017-Nov-12 22:38N 29°46' W 095°07'1 0.2
2017-Nov-12 16:01N 29°45' W 095°06'0 6.0
2017-Nov-12 16:00N 29°45' W 095°06'3 5.7
2017-Nov-12 15:29N 29°45' W 095°10'0 0.0
2017-Nov-12 05:01N 29°44' W 095°10'0 0.0
2017-Nov-12 04:37N 29°44' W 095°10'0 0.0
2017-Nov-12 01:49N 29°44' W 095°10'0 0.0
2017-Nov-12 01:22N 29°44' W 095°10'0 0.0
2017-Nov-12 00:58N 29°44' W 095°10'0 0.0
2017-Nov-11 19:49N 29°45' W 095°10'1 1.5
2017-Nov-11 19:15N 29°44' W 095°09'1 3.3
2017-Nov-11 18:58N 29°44' W 095°08'3 5.9
2017-Nov-11 18:29N 29°46' W 095°05'3 5.4
2017-Nov-11 18:00N 29°44' W 095°03'2 4.3
2017-Nov-11 17:30N 29°43' W 095°01'3 5.4
2017-Nov-11 17:00N 29°41' W 094°59'3 6.5
2017-Nov-11 16:30N 29°38' W 094°58'3 6.8
2017-Nov-11 16:01N 29°35' W 094°56'3 6.4
2017-Nov-11 15:30N 29°32' W 094°54'3 5.6
2017-Nov-11 15:00N 29°30' W 094°52'91 4.0
2017-Nov-10 16:30N 30°11' W 093°19'0 0.3
2017-Nov-10 15:59N 30°11' W 093°19'0 0.1
2017-Nov-10 15:29N 30°11' W 093°19'0 0.0
2017-Nov-10 14:59N 30°11' W 093°19'0 0.0
2017-Nov-10 14:29N 30°11' W 093°19'0 0.0
2017-Nov-10 13:59N 30°11' W 093°19'0 0.0
2017-Nov-10 13:29N 30°11' W 093°19'0 0.0
2017-Nov-10 12:59N 30°11' W 093°19'0 0.0
2017-Nov-10 12:29N 30°11' W 093°19'0 0.0
2017-Nov-10 11:59N 30°11' W 093°19'0 0.0
2017-Nov-10 11:29N 30°11' W 093°19'0 0.0
2017-Nov-10 10:59N 30°11' W 093°19'0 0.0
2017-Nov-10 10:23N 30°11' W 093°19'0 0.0
2017-Nov-10 09:59N 30°11' W 093°19'0 0.0
2017-Nov-10 09:29N 30°11' W 093°19'0 0.0
2017-Nov-10 08:59N 30°11' W 093°19'0 0.0
2017-Nov-10 08:29N 30°11' W 093°19'0 0.0
2017-Nov-10 07:59N 30°11' W 093°19'0 0.0
2017-Nov-10 07:29N 30°11' W 093°19'0 0.0
2017-Nov-10 06:59N 30°11' W 093°19'0 0.0
2017-Nov-10 06:29N 30°11' W 093°19'0 0.0
2017-Nov-10 05:59N 30°11' W 093°19'0 0.0
2017-Nov-10 05:29N 30°11' W 093°19'0 0.0
2017-Nov-10 04:59N 30°11' W 093°19'0 0.0
2017-Nov-10 04:29N 30°11' W 093°19'0 0.0
2017-Nov-10 03:59N 30°11' W 093°19'0 0.0
2017-Nov-10 03:29N 30°11' W 093°19'0 0.0
2017-Nov-10 02:59N 30°11' W 093°19'0 0.0
2017-Nov-10 02:29N 30°11' W 093°19'0 0.0
2017-Nov-10 01:59N 30°11' W 093°19'0 0.0
2017-Nov-10 01:29N 30°11' W 093°19'0 0.0
2017-Nov-10 00:59N 30°11' W 093°19'0 0.0
2017-Nov-10 00:29N 30°11' W 093°19'0 0.0
2017-Nov-09 23:59N 30°11' W 093°19'0 0.0
2017-Nov-09 23:29N 30°11' W 093°19'0 0.0
2017-Nov-09 22:59N 30°11' W 093°19'0 0.0
2017-Nov-09 22:29N 30°11' W 093°19'0 0.0
2017-Nov-09 21:59N 30°11' W 093°19'0 0.0
2017-Nov-09 21:29N 30°11' W 093°19'0 0.0
2017-Nov-09 20:59N 30°11' W 093°19'0 0.0
2017-Nov-09 20:29N 30°11' W 093°19'0 0.0
2017-Nov-09 19:59N 30°11' W 093°19'0 0.0
2017-Nov-09 19:29N 30°11' W 093°19'0 0.0
2017-Nov-09 18:59N 30°11' W 093°19'0 0.0
2017-Nov-09 18:29N 30°11' W 093°19'0 0.0
2017-Nov-09 17:59N 30°11' W 093°19'0 0.0
2017-Nov-09 17:29N 30°11' W 093°19'0 0.0
2017-Nov-09 16:59N 30°11' W 093°19'0 0.0
2017-Nov-09 16:29N 30°11' W 093°19'0 0.0
2017-Nov-09 15:59N 30°11' W 093°19'0 0.0
2017-Nov-09 15:29N 30°11' W 093°19'0 0.0
2017-Nov-09 14:59N 30°11' W 093°19'0 0.0
2017-Nov-09 14:29N 30°11' W 093°19'0 0.0
2017-Nov-09 13:59N 30°11' W 093°19'0 0.0
2017-Nov-09 13:29N 30°11' W 093°19'0 0.0
2017-Nov-09 12:59N 30°11' W 093°19'0 0.0
2017-Nov-09 12:29N 30°11' W 093°19'0 0.0
2017-Nov-09 11:59N 30°11' W 093°19'0 0.0
2017-Nov-09 11:29N 30°11' W 093°19'0 0.0
2017-Nov-09 10:59N 30°11' W 093°19'0 0.0
2017-Nov-09 10:29N 30°11' W 093°19'0 0.0
2017-Nov-09 09:59N 30°11' W 093°19'0 0.0
2017-Nov-09 09:29N 30°11' W 093°19'0 0.0
2017-Nov-09 08:59N 30°11' W 093°19'0 0.0
2017-Nov-09 08:29N 30°11' W 093°19'0 0.0
2017-Nov-09 07:59N 30°11' W 093°19'0 0.0
2017-Nov-09 07:29N 30°11' W 093°19'0 0.0
2017-Nov-09 06:59N 30°11' W 093°19'0 0.0
2017-Nov-09 06:29N 30°11' W 093°19'0 0.0
2017-Nov-09 05:59N 30°11' W 093°19'0 0.0
2017-Nov-09 05:29N 30°11' W 093°19'0 0.0
2017-Nov-09 04:59N 30°11' W 093°19'0 0.0
2017-Nov-09 04:29N 30°11' W 093°19'0 0.0
2017-Nov-09 03:59N 30°11' W 093°19'0 0.0
2017-Nov-09 03:29N 30°11' W 093°19'0 0.1
2017-Nov-09 03:00N 30°11' W 093°19'1 1.1
2017-Nov-09 02:31N 30°11' W 093°18'2 4.9
2017-Nov-09 02:01N 30°13' W 093°16'1 1.4
2017-Nov-09 01:29N 30°14' W 093°16'0 0.0
2017-Nov-09 00:59N 30°14' W 093°16'0 0.0
2017-Nov-09 00:29N 30°14' W 093°16'0 0.0
2017-Nov-08 23:59N 30°14' W 093°16'0 0.0
2017-Nov-08 23:29N 30°14' W 093°16'0 0.0
2017-Nov-08 22:59N 30°14' W 093°16'0 0.0
2017-Nov-08 22:29N 30°14' W 093°16'0 0.0
2017-Nov-08 21:59N 30°14' W 093°16'0 0.0
2017-Nov-08 21:29N 30°14' W 093°16'0 0.0
2017-Nov-08 20:59N 30°14' W 093°16'0 0.0
2017-Nov-08 20:29N 30°14' W 093°16'0 0.0
2017-Nov-08 19:59N 30°14' W 093°16'0 0.0
2017-Nov-08 19:29N 30°14' W 093°16'0 0.0
2017-Nov-08 18:59N 30°14' W 093°16'0 0.0
2017-Nov-08 18:29N 30°14' W 093°16'0 0.0
2017-Nov-08 17:59N 30°14' W 093°16'0 0.0
2017-Nov-08 17:29N 30°14' W 093°16'0 0.0
2017-Nov-08 16:59N 30°14' W 093°16'0 0.0
2017-Nov-08 16:29N 30°14' W 093°16'0 0.0
2017-Nov-08 15:59N 30°14' W 093°16'0 0.0
2017-Nov-08 15:29N 30°14' W 093°16'0 0.0
2017-Nov-08 14:59N 30°14' W 093°16'0 0.0
2017-Nov-08 14:29N 30°14' W 093°16'0 0.0
2017-Nov-08 13:59N 30°14' W 093°16'0 0.0
2017-Nov-08 13:29N 30°14' W 093°16'0 0.0
2017-Nov-08 12:59N 30°14' W 093°16'0 0.0
2017-Nov-08 12:29N 30°14' W 093°16'0 0.0
2017-Nov-08 11:59N 30°14' W 093°16'0 0.0
2017-Nov-08 11:29N 30°14' W 093°16'0 0.0
2017-Nov-08 10:59N 30°14' W 093°16'0 0.0
2017-Nov-08 10:29N 30°14' W 093°16'0 0.0
2017-Nov-08 09:59N 30°14' W 093°16'0 0.0
2017-Nov-08 09:29N 30°14' W 093°16'0 0.0
2017-Nov-08 08:56N 30°14' W 093°16'0 0.0
2017-Nov-08 08:29N 30°14' W 093°16'0 0.0
2017-Nov-08 07:59N 30°14' W 093°16'0 0.0
2017-Nov-08 07:29N 30°14' W 093°16'0 0.0
2017-Nov-08 06:59N 30°14' W 093°16'0 0.0
2017-Nov-08 06:29N 30°14' W 093°16'0 0.0
2017-Nov-08 05:59N 30°14' W 093°16'0 0.0
2017-Nov-08 05:29N 30°14' W 093°16'0 0.0
2017-Nov-08 04:59N 30°14' W 093°16'0 0.0
2017-Nov-08 04:29N 30°14' W 093°16'0 0.0
2017-Nov-08 03:59N 30°14' W 093°16'0 0.0
2017-Nov-08 03:29N 30°14' W 093°16'0 0.0
2017-Nov-08 02:59N 30°14' W 093°16'0 0.0
2017-Nov-08 02:29N 30°14' W 093°16'0 0.0
2017-Nov-08 01:59N 30°14' W 093°16'0 0.0
2017-Nov-08 01:29N 30°14' W 093°16'  
Track history (hours):
 
Tides and Currents Weather Stations Pressure Air Temp Water Temp Dewpoint Dewpoint Depression Visibility Wind Speed Wind Dir Waves Ship Positions

Kate Golding

Owner: GOLDING BARGE LINE, INC, VICKSBURG, MS. More information available from US FCC via Universal Licensing System and Coast Guard Vessel Documentation Center.

Last reported at 2017-Nov-18 01:05 UTC. Time now 2017-Nov-19 01:27 UTC.
Position N 29°34' W 090°31'.

Length 121 m; draft 2.4 m.

Type: . MMSI: 367651810.

Date/timePositionNaut miles runAvg speedWind from/ knotsBaromVisibWave heightAir tempDewpointWater temp
2017-Nov-18 01:05N 29°34' W 090°31'1 5.6
2017-Nov-18 00:58N 29°34' W 090°32'3 5.4
2017-Nov-18 00:30N 29°34' W 090°34'3 5.2
2017-Nov-18 00:00N 29°35' W 090°37'1 2.8
2017-Nov-17 23:31N 29°35' W 090°39'3 5.6
2017-Nov-17 23:01N 29°37' W 090°42'2 4.0
2017-Nov-17 22:30N 29°35' W 090°43'2 3.9
2017-Nov-17 22:01N 29°34' W 090°45'1 1.0
2017-Nov-17 21:29N 29°33' W 090°45'0 0.0
2017-Nov-17 20:58N 29°33' W 090°45'0 0.1
2017-Nov-17 20:28N 29°33' W 090°45'1 2.8
2017-Nov-17 20:00N 29°32' W 090°46'3 5.9
2017-Nov-17 19:30N 29°32' W 090°49'3 5.9
2017-Nov-17 18:58N 29°32' W 090°53'3 5.9
2017-Nov-17 18:28N 29°34' W 090°56'57 4.0
2017-Nov-17 04:11N 29°50' W 091°59'1 5.6
2017-Nov-17 04:00N 29°50' W 091°60'3 5.6
2017-Nov-17 03:30N 29°49' W 092°03'3 5.6
2017-Nov-17 03:00N 29°48' W 092°06'3 5.5
2017-Nov-17 02:30N 29°47' W 092°09'2 4.9
2017-Nov-17 02:00N 29°47' W 092°12'1 1.8
2017-Nov-17 01:30N 29°47' W 092°13'1 2.3
2017-Nov-17 00:58N 29°48' W 092°14'0 0.0
2017-Nov-17 00:28N 29°48' W 092°14'0 0.2
2017-Nov-16 23:58N 29°48' W 092°14'1 3.0
2017-Nov-16 23:30N 29°48' W 092°16'2 4.1
2017-Nov-16 23:00N 29°50' W 092°18'2 4.7
2017-Nov-16 22:30N 29°51' W 092°20'4 4.7
2017-Nov-16 21:37N 29°53' W 092°24'2 3.3
2017-Nov-16 21:09N 29°53' W 092°26'34 5.2
2017-Nov-16 14:40N 29°56' W 093°04'2 5.4
2017-Nov-16 14:13N 29°56' W 093°07'1 5.3
2017-Nov-16 13:57N 29°56' W 093°09'3 5.2
2017-Nov-16 13:27N 29°58' W 093°11'1 1.1
2017-Nov-16 12:45N 29°58' W 093°12'0 0.0
2017-Nov-16 11:45N 29°58' W 093°12'0 0.1
2017-Nov-16 11:30N 29°58' W 093°12'0 0.0
2017-Nov-16 11:00N 29°58' W 093°12'0 0.0
2017-Nov-16 10:30N 29°58' W 093°12'0 0.0
2017-Nov-16 10:00N 29°58' W 093°12'0 0.0
2017-Nov-16 09:30N 29°58' W 093°12'0 0.0
2017-Nov-16 08:57N 29°58' W 093°12'0 0.0
2017-Nov-16 08:30N 29°58' W 093°12'0 0.0
2017-Nov-16 08:00N 29°58' W 093°12'0 0.0
2017-Nov-16 07:27N 29°58' W 093°12'0 0.0
2017-Nov-16 07:00N 29°58' W 093°12'0 0.0
2017-Nov-16 06:30N 29°58' W 093°12'0 0.0
2017-Nov-16 06:00N 29°58' W 093°12'0 0.0
2017-Nov-16 05:30N 29°58' W 093°12'0 0.0
2017-Nov-16 05:00N 29°58' W 093°12'0 0.1
2017-Nov-16 04:30N 29°58' W 093°12'0 0.1
2017-Nov-16 03:57N 29°58' W 093°12'2 4.1
2017-Nov-16 03:30N 29°60' W 093°13'2 4.7
2017-Nov-16 03:01N 30°02' W 093°15'2 4.2
2017-Nov-16 02:30N 30°04' W 093°16'2 4.5
2017-Nov-16 02:01N 30°05' W 093°18'1 1.9
2017-Nov-16 01:30N 30°06' W 093°18'1 1.4
2017-Nov-16 00:59N 30°06' W 093°19'0 0.0
2017-Nov-16 00:29N 30°06' W 093°19'0 0.0
2017-Nov-15 23:59N 30°06' W 093°19'0 0.1
2017-Nov-15 23:29N 30°06' W 093°19'0 0.7
2017-Nov-15 23:00N 30°06' W 093°19'2 3.5
2017-Nov-15 22:30N 30°04' W 093°20'2 3.4
2017-Nov-15 22:00N 30°04' W 093°22'2 4.4
2017-Nov-15 21:30N 30°04' W 093°25'1 2.1
2017-Nov-15 21:00N 30°04' W 093°26'2 4.4
2017-Nov-15 20:30N 30°04' W 093°29'3 5.2
2017-Nov-15 20:00N 30°04' W 093°32'22 5.2
2017-Nov-15 15:49N 29°54' W 093°54'56 4.3
2017-Nov-15 02:44N 29°30' W 094°53'2 7.3
2017-Nov-15 02:30N 29°32' W 094°54'3 6.9
2017-Nov-15 02:00N 29°35' W 094°56'3 7.0
2017-Nov-15 01:30N 29°38' W 094°58'4 7.2
2017-Nov-15 01:00N 29°41' W 094°59'3 6.1
2017-Nov-15 00:30N 29°43' W 095°01'5 3.5
2017-Nov-14 23:13N 29°48' W 095°04'2 0.2
2017-Nov-14 12:16N 29°46' W 095°05'3 6.6
2017-Nov-14 11:44N 29°44' W 095°08'1 4.2
2017-Nov-14 11:23N 29°45' W 095°10'3 0.1
2017-Nov-12 22:38N 29°46' W 095°07'1 0.2
2017-Nov-12 16:01N 29°45' W 095°06'0 6.0
2017-Nov-12 16:00N 29°45' W 095°06'3 5.7
2017-Nov-12 15:29N 29°45' W 095°10'0 0.0
2017-Nov-12 05:01N 29°44' W 095°10'0 0.0
2017-Nov-12 04:37N 29°44' W 095°10'0 0.0
2017-Nov-12 01:49N 29°44' W 095°10'0 0.0
2017-Nov-12 01:22N 29°44' W 095°10'0 0.0
2017-Nov-12 00:58N 29°44' W 095°10'0 0.0
2017-Nov-11 19:49N 29°45' W 095°10'1 1.5
2017-Nov-11 19:15N 29°44' W 095°09'1 3.3
2017-Nov-11 18:58N 29°44' W 095°08'3 5.9
2017-Nov-11 18:29N 29°46' W 095°05'3 5.4
2017-Nov-11 18:00N 29°44' W 095°03'2 4.3
2017-Nov-11 17:30N 29°43' W 095°01'3 5.4
2017-Nov-11 17:00N 29°41' W 094°59'3 6.5
2017-Nov-11 16:30N 29°38' W 094°58'3 6.8
2017-Nov-11 16:01N 29°35' W 094°56'3 6.4
2017-Nov-11 15:30N 29°32' W 094°54'3 5.6
2017-Nov-11 15:00N 29°30' W 094°52'91 4.0
2017-Nov-10 16:30N 30°11' W 093°19'0 0.3
2017-Nov-10 15:59N 30°11' W 093°19'0 0.1
2017-Nov-10 15:29N 30°11' W 093°19'0 0.0
2017-Nov-10 14:59N 30°11' W 093°19'0 0.0
2017-Nov-10 14:29N 30°11' W 093°19'0 0.0
2017-Nov-10 13:59N 30°11' W 093°19'0 0.0
2017-Nov-10 13:29N 30°11' W 093°19'0 0.0
2017-Nov-10 12:59N 30°11' W 093°19'0 0.0
2017-Nov-10 12:29N 30°11' W 093°19'0 0.0
2017-Nov-10 11:59N 30°11' W 093°19'0 0.0
2017-Nov-10 11:29N 30°11' W 093°19'0 0.0
2017-Nov-10 10:59N 30°11' W 093°19'0 0.0
2017-Nov-10 10:23N 30°11' W 093°19'0 0.0
2017-Nov-10 09:59N 30°11' W 093°19'0 0.0
2017-Nov-10 09:29N 30°11' W 093°19'0 0.0
2017-Nov-10 08:59N 30°11' W 093°19'0 0.0
2017-Nov-10 08:29N 30°11' W 093°19'0 0.0
2017-Nov-10 07:59N 30°11' W 093°19'0 0.0
2017-Nov-10 07:29N 30°11' W 093°19'0 0.0
2017-Nov-10 06:59N 30°11' W 093°19'0 0.0
2017-Nov-10 06:29N 30°11' W 093°19'0 0.0
2017-Nov-10 05:59N 30°11' W 093°19'0 0.0
2017-Nov-10 05:29N 30°11' W 093°19'0 0.0
2017-Nov-10 04:59N 30°11' W 093°19'0 0.0
2017-Nov-10 04:29N 30°11' W 093°19'0 0.0
2017-Nov-10 03:59N 30°11' W 093°19'0 0.0
2017-Nov-10 03:29N 30°11' W 093°19'0 0.0
2017-Nov-10 02:59N 30°11' W 093°19'0 0.0
2017-Nov-10 02:29N 30°11' W 093°19'0 0.0
2017-Nov-10 01:59N 30°11' W 093°19'0 0.0
2017-Nov-10 01:29N 30°11' W 093°19'0 0.0
2017-Nov-10 00:59N 30°11' W 093°19'0 0.0
2017-Nov-10 00:29N 30°11' W 093°19'0 0.0
2017-Nov-09 23:59N 30°11' W 093°19'0 0.0
2017-Nov-09 23:29N 30°11' W 093°19'0 0.0
2017-Nov-09 22:59N 30°11' W 093°19'0 0.0
2017-Nov-09 22:29N 30°11' W 093°19'0 0.0
2017-Nov-09 21:59N 30°11' W 093°19'0 0.0
2017-Nov-09 21:29N 30°11' W 093°19'0 0.0
2017-Nov-09 20:59N 30°11' W 093°19'0 0.0
2017-Nov-09 20:29N 30°11' W 093°19'0 0.0
2017-Nov-09 19:59N 30°11' W 093°19'0 0.0
2017-Nov-09 19:29N 30°11' W 093°19'0 0.0
2017-Nov-09 18:59N 30°11' W 093°19'0 0.0
2017-Nov-09 18:29N 30°11' W 093°19'0 0.0
2017-Nov-09 17:59N 30°11' W 093°19'0 0.0
2017-Nov-09 17:29N 30°11' W 093°19'0 0.0
2017-Nov-09 16:59N 30°11' W 093°19'0 0.0
2017-Nov-09 16:29N 30°11' W 093°19'0 0.0
2017-Nov-09 15:59N 30°11' W 093°19'0 0.0
2017-Nov-09 15:29N 30°11' W 093°19'0 0.0
2017-Nov-09 14:59N 30°11' W 093°19'0 0.0
2017-Nov-09 14:29N 30°11' W 093°19'0 0.0
2017-Nov-09 13:59N 30°11' W 093°19'0 0.0
2017-Nov-09 13:29N 30°11' W 093°19'0 0.0
2017-Nov-09 12:59N 30°11' W 093°19'0 0.0
2017-Nov-09 12:29N 30°11' W 093°19'0 0.0
2017-Nov-09 11:59N 30°11' W 093°19'0 0.0
2017-Nov-09 11:29N 30°11' W 093°19'0 0.0
2017-Nov-09 10:59N 30°11' W 093°19'0 0.0
2017-Nov-09 10:29N 30°11' W 093°19'0 0.0
2017-Nov-09 09:59N 30°11' W 093°19'0 0.0
2017-Nov-09 09:29N 30°11' W 093°19'0 0.0
2017-Nov-09 08:59N 30°11' W 093°19'0 0.0
2017-Nov-09 08:29N 30°11' W 093°19'0 0.0
2017-Nov-09 07:59N 30°11' W 093°19'0 0.0
2017-Nov-09 07:29N 30°11' W 093°19'0 0.0
2017-Nov-09 06:59N 30°11' W 093°19'0 0.0
2017-Nov-09 06:29N 30°11' W 093°19'0 0.0
2017-Nov-09 05:59N 30°11' W 093°19'0 0.0
2017-Nov-09 05:29N 30°11' W 093°19'0 0.0
2017-Nov-09 04:59N 30°11' W 093°19'0 0.0
2017-Nov-09 04:29N 30°11' W 093°19'0 0.0
2017-Nov-09 03:59N 30°11' W 093°19'0 0.0
2017-Nov-09 03:29N 30°11' W 093°19'0 0.1
2017-Nov-09 03:00N 30°11' W 093°19'1 1.1
2017-Nov-09 02:31N 30°11' W 093°18'2 4.9
2017-Nov-09 02:01N 30°13' W 093°16'1 1.4
2017-Nov-09 01:29N 30°14' W 093°16'0 0.0
2017-Nov-09 00:59N 30°14' W 093°16'0 0.0
2017-Nov-09 00:29N 30°14' W 093°16'0 0.0
2017-Nov-08 23:59N 30°14' W 093°16'0 0.0
2017-Nov-08 23:29N 30°14' W 093°16'0 0.0
2017-Nov-08 22:59N 30°14' W 093°16'0 0.0
2017-Nov-08 22:29N 30°14' W 093°16'0 0.0
2017-Nov-08 21:59N 30°14' W 093°16'0 0.0
2017-Nov-08 21:29N 30°14' W 093°16'0 0.0
2017-Nov-08 20:59N 30°14' W 093°16'0 0.0
2017-Nov-08 20:29N 30°14' W 093°16'0 0.0
2017-Nov-08 19:59N 30°14' W 093°16'0 0.0
2017-Nov-08 19:29N 30°14' W 093°16'0 0.0
2017-Nov-08 18:59N 30°14' W 093°16'0 0.0
2017-Nov-08 18:29N 30°14' W 093°16'0 0.0
2017-Nov-08 17:59N 30°14' W 093°16'0 0.0
2017-Nov-08 17:29N 30°14' W 093°16'0 0.0
2017-Nov-08 16:59N 30°14' W 093°16'0 0.0
2017-Nov-08 16:29N 30°14' W 093°16'0 0.0
2017-Nov-08 15:59N 30°14' W 093°16'0 0.0
2017-Nov-08 15:29N 30°14' W 093°16'0 0.0
2017-Nov-08 14:59N 30°14' W 093°16'0 0.0
2017-Nov-08 14:29N 30°14' W 093°16'0 0.0
2017-Nov-08 13:59N 30°14' W 093°16'0 0.0
2017-Nov-08 13:29N 30°14' W 093°16'0 0.0
2017-Nov-08 12:59N 30°14' W 093°16'0 0.0
2017-Nov-08 12:29N 30°14' W 093°16'0 0.0
2017-Nov-08 11:59N 30°14' W 093°16'0 0.0
2017-Nov-08 11:29N 30°14' W 093°16'0 0.0
2017-Nov-08 10:59N 30°14' W 093°16'0 0.0
2017-Nov-08 10:29N 30°14' W 093°16'0 0.0
2017-Nov-08 09:59N 30°14' W 093°16'0 0.0
2017-Nov-08 09:29N 30°14' W 093°16'0 0.0
2017-Nov-08 08:56N 30°14' W 093°16'0 0.0
2017-Nov-08 08:29N 30°14' W 093°16'0 0.0
2017-Nov-08 07:59N 30°14' W 093°16'0 0.0
2017-Nov-08 07:29N 30°14' W 093°16'0 0.0
2017-Nov-08 06:59N 30°14' W 093°16'0 0.0
2017-Nov-08 06:29N 30°14' W 093°16'0 0.0
2017-Nov-08 05:59N 30°14' W 093°16'0 0.0
2017-Nov-08 05:29N 30°14' W 093°16'0 0.0
2017-Nov-08 04:59N 30°14' W 093°16'0 0.0
2017-Nov-08 04:29N 30°14' W 093°16'0 0.0
2017-Nov-08 03:59N 30°14' W 093°16'0 0.0
2017-Nov-08 03:29N 30°14' W 093°16'0 0.0
2017-Nov-08 02:59N 30°14' W 093°16'0 0.0
2017-Nov-08 02:29N 30°14' W 093°16'0 0.0
2017-Nov-08 01:59N 30°14' W 093°16'0 0.0
2017-Nov-08 01:29N 30°14' W 093°16'  

Dump ship's entire track history